sensor_id;sensor_type;location;lat;lon;timestamp;temperature;humidity
46898;DHT22;32646;50.958;6.258;2022-07-10T00:01:59;12.60;99.90
46898;DHT22;32646;50.958;6.258;2022-07-10T00:04:27;12.50;99.90
46898;DHT22;32646;50.958;6.258;2022-07-10T00:06:54;12.60;99.90
46898;DHT22;32646;50.958;6.258;2022-07-10T00:09:22;12.60;99.90
46898;DHT22;32646;50.958;6.258;2022-07-10T00:11:49;12.50;99.90
46898;DHT22;32646;50.958;6.258;2022-07-10T00:14:16;12.40;99.90
46898;DHT22;32646;50.958;6.258;2022-07-10T00:16:42;12.50;99.90
46898;DHT22;32646;50.958;6.258;2022-07-10T00:19:09;12.40;99.90
46898;DHT22;32646;50.958;6.258;2022-07-10T00:21:35;12.40;99.90
46898;DHT22;32646;50.958;6.258;2022-07-10T00:24:02;12.30;99.90
46898;DHT22;32646;50.958;6.258;2022-07-10T00:26:29;12.20;99.90
46898;DHT22;32646;50.958;6.258;2022-07-10T00:28:55;12.20;99.90
46898;DHT22;32646;50.958;6.258;2022-07-10T00:31:22;12.20;99.90
46898;DHT22;32646;50.958;6.258;2022-07-10T00:33:49;12.10;99.90
46898;DHT22;32646;50.958;6.258;2022-07-10T00:36:15;12.10;99.90
46898;DHT22;32646;50.958;6.258;2022-07-10T00:38:42;12.10;99.90
46898;DHT22;32646;50.958;6.258;2022-07-10T00:41:08;12.10;99.90
46898;DHT22;32646;50.958;6.258;2022-07-10T00:43:58;12.20;99.90
46898;DHT22;32646;50.958;6.258;2022-07-10T00:46:29;12.30;99.90
46898;DHT22;32646;50.958;6.258;2022-07-10T00:48:56;12.20;99.90
46898;DHT22;32646;50.958;6.258;2022-07-10T00:51:25;12.30;99.90
46898;DHT22;32646;50.958;6.258;2022-07-10T00:53:52;12.20;99.90
46898;DHT22;32646;50.958;6.258;2022-07-10T00:56:21;12.20;99.90
46898;DHT22;32646;50.958;6.258;2022-07-10T00:58:49;12.30;99.90
46898;DHT22;32646;50.958;6.258;2022-07-10T01:01:16;12.40;99.90
46898;DHT22;32646;50.958;6.258;2022-07-10T01:03:43;12.40;99.90
46898;DHT22;32646;50.958;6.258;2022-07-10T01:06:10;12.40;99.90
46898;DHT22;32646;50.958;6.258;2022-07-10T01:08:37;12.40;99.90
46898;DHT22;32646;50.958;6.258;2022-07-10T01:11:05;12.50;99.90
46898;DHT22;32646;50.958;6.258;2022-07-10T01:13:32;12.60;99.90
46898;DHT22;32646;50.958;6.258;2022-07-10T01:15:58;12.70;99.90
46898;DHT22;32646;50.958;6.258;2022-07-10T01:18:26;12.90;99.90
46898;DHT22;32646;50.958;6.258;2022-07-10T01:20:54;12.90;99.90
46898;DHT22;32646;50.958;6.258;2022-07-10T01:23:21;13.00;99.90
46898;DHT22;32646;50.958;6.258;2022-07-10T01:25:48;13.10;99.90
46898;DHT22;32646;50.958;6.258;2022-07-10T01:28:16;13.00;99.90
46898;DHT22;32646;50.958;6.258;2022-07-10T01:30:43;13.10;99.90
46898;DHT22;32646;50.958;6.258;2022-07-10T01:33:10;13.20;99.90
46898;DHT22;32646;50.958;6.258;2022-07-10T01:35:37;13.30;99.90
46898;DHT22;32646;50.958;6.258;2022-07-10T01:38:04;13.20;99.90
46898;DHT22;32646;50.958;6.258;2022-07-10T01:40:30;13.30;99.90
46898;DHT22;32646;50.958;6.258;2022-07-10T01:42:57;13.20;99.90
46898;DHT22;32646;50.958;6.258;2022-07-10T01:45:24;13.10;99.90
46898;DHT22;32646;50.958;6.258;2022-07-10T01:47:51;13.10;99.90
46898;DHT22;32646;50.958;6.258;2022-07-10T01:50:17;13.20;99.90
46898;DHT22;32646;50.958;6.258;2022-07-10T01:52:44;13.10;99.90
46898;DHT22;32646;50.958;6.258;2022-07-10T01:55:10;13.10;99.90
46898;DHT22;32646;50.958;6.258;2022-07-10T01:57:37;13.00;99.90
46898;DHT22;32646;50.958;6.258;2022-07-10T02:00:05;13.00;99.90
46898;DHT22;32646;50.958;6.258;2022-07-10T02:02:32;13.00;99.90
46898;DHT22;32646;50.958;6.258;2022-07-10T02:04:58;13.00;99.90
46898;DHT22;32646;50.958;6.258;2022-07-10T02:07:25;13.10;99.90
46898;DHT22;32646;50.958;6.258;2022-07-10T02:09:52;13.00;99.90
46898;DHT22;32646;50.958;6.258;2022-07-10T02:12:18;12.80;99.90
46898;DHT22;32646;50.958;6.258;2022-07-10T02:14:45;12.70;99.90
46898;DHT22;32646;50.958;6.258;2022-07-10T02:17:11;12.80;99.90
46898;DHT22;32646;50.958;6.258;2022-07-10T02:19:38;12.80;99.90
46898;DHT22;32646;50.958;6.258;2022-07-10T02:22:05;12.80;99.90
46898;DHT22;32646;50.958;6.258;2022-07-10T02:24:31;12.80;99.90
46898;DHT22;32646;50.958;6.258;2022-07-10T02:26:58;12.70;99.90
46898;DHT22;32646;50.958;6.258;2022-07-10T02:29:24;12.80;99.90
46898;DHT22;32646;50.958;6.258;2022-07-10T02:31:51;12.80;99.90
46898;DHT22;32646;50.958;6.258;2022-07-10T02:34:19;12.80;99.90
46898;DHT22;32646;50.958;6.258;2022-07-10T02:36:46;12.80;99.90
46898;DHT22;32646;50.958;6.258;2022-07-10T02:39:13;12.80;99.90
46898;DHT22;32646;50.958;6.258;2022-07-10T02:41:39;12.90;99.90
46898;DHT22;32646;50.958;6.258;2022-07-10T02:44:06;12.80;99.90
46898;DHT22;32646;50.958;6.258;2022-07-10T02:46:33;12.90;99.90
46898;DHT22;32646;50.958;6.258;2022-07-10T02:48:59;12.90;99.90
46898;DHT22;32646;50.958;6.258;2022-07-10T02:51:26;12.80;99.90
46898;DHT22;32646;50.958;6.258;2022-07-10T02:53:52;12.80;99.90
46898;DHT22;32646;50.958;6.258;2022-07-10T02:56:19;12.90;99.90
46898;DHT22;32646;50.958;6.258;2022-07-10T02:58:45;12.90;99.90
46898;DHT22;32646;50.958;6.258;2022-07-10T03:01:12;12.80;99.90
46898;DHT22;32646;50.958;6.258;2022-07-10T03:03:39;12.80;99.90
46898;DHT22;32646;50.958;6.258;2022-07-10T03:06:05;12.60;99.90
46898;DHT22;32646;50.958;6.258;2022-07-10T03:08:32;12.60;99.90
46898;DHT22;32646;50.958;6.258;2022-07-10T03:10:59;12.50;99.90
46898;DHT22;32646;50.958;6.258;2022-07-10T03:13:25;12.50;99.90
46898;DHT22;32646;50.958;6.258;2022-07-10T03:15:54;12.40;99.90
46898;DHT22;32646;50.958;6.258;2022-07-10T03:18:20;12.30;99.90
46898;DHT22;32646;50.958;6.258;2022-07-10T03:20:47;12.30;99.90
46898;DHT22;32646;50.958;6.258;2022-07-10T03:23:14;12.30;99.90
46898;DHT22;32646;50.958;6.258;2022-07-10T03:25:41;12.30;99.90
46898;DHT22;32646;50.958;6.258;2022-07-10T03:28:07;12.30;99.90
46898;DHT22;32646;50.958;6.258;2022-07-10T03:30:34;12.30;99.90
46898;DHT22;32646;50.958;6.258;2022-07-10T03:33:01;12.10;99.90
46898;DHT22;32646;50.958;6.258;2022-07-10T03:35:28;12.10;99.90
46898;DHT22;32646;50.958;6.258;2022-07-10T03:37:54;12.20;99.90
46898;DHT22;32646;50.958;6.258;2022-07-10T03:40:21;12.20;99.90
46898;DHT22;32646;50.958;6.258;2022-07-10T03:42:48;12.10;99.90
46898;DHT22;32646;50.958;6.258;2022-07-10T03:45:14;12.20;99.90
46898;DHT22;32646;50.958;6.258;2022-07-10T03:47:41;12.20;99.90
46898;DHT22;32646;50.958;6.258;2022-07-10T03:50:08;12.30;99.90
46898;DHT22;32646;50.958;6.258;2022-07-10T03:52:35;12.40;99.90
46898;DHT22;32646;50.958;6.258;2022-07-10T03:55:02;12.50;99.90
46898;DHT22;32646;50.958;6.258;2022-07-10T03:57:29;12.70;99.90
46898;DHT22;32646;50.958;6.258;2022-07-10T03:59:55;12.80;99.90
46898;DHT22;32646;50.958;6.258;2022-07-10T04:02:22;12.90;99.90
46898;DHT22;32646;50.958;6.258;2022-07-10T04:04:49;13.00;99.90
46898;DHT22;32646;50.958;6.258;2022-07-10T04:07:16;13.10;99.90
46898;DHT22;32646;50.958;6.258;2022-07-10T04:09:42;13.20;99.90
46898;DHT22;32646;50.958;6.258;2022-07-10T04:12:09;13.20;99.90
46898;DHT22;32646;50.958;6.258;2022-07-10T04:14:35;13.20;99.90
46898;DHT22;32646;50.958;6.258;2022-07-10T04:17:02;13.20;99.90
46898;DHT22;32646;50.958;6.258;2022-07-10T04:19:29;13.20;99.90
46898;DHT22;32646;50.958;6.258;2022-07-10T04:21:55;13.30;99.90
46898;DHT22;32646;50.958;6.258;2022-07-10T04:24:22;13.40;99.90
46898;DHT22;32646;50.958;6.258;2022-07-10T04:26:48;13.40;99.90
46898;DHT22;32646;50.958;6.258;2022-07-10T04:29:15;13.40;99.90
46898;DHT22;32646;50.958;6.258;2022-07-10T04:31:42;13.40;99.90
46898;DHT22;32646;50.958;6.258;2022-07-10T04:34:08;13.50;99.90
46898;DHT22;32646;50.958;6.258;2022-07-10T04:36:35;13.40;99.90
46898;DHT22;32646;50.958;6.258;2022-07-10T04:39:01;13.50;99.90
46898;DHT22;32646;50.958;6.258;2022-07-10T04:41:28;13.50;99.90
46898;DHT22;32646;50.958;6.258;2022-07-10T04:43:55;13.50;99.90
46898;DHT22;32646;50.958;6.258;2022-07-10T04:46:21;13.60;99.90
46898;DHT22;32646;50.958;6.258;2022-07-10T04:48:48;13.50;99.90
46898;DHT22;32646;50.958;6.258;2022-07-10T04:51:15;13.60;99.90
46898;DHT22;32646;50.958;6.258;2022-07-10T04:53:42;13.50;99.90
46898;DHT22;32646;50.958;6.258;2022-07-10T04:56:08;13.60;99.90
46898;DHT22;32646;50.958;6.258;2022-07-10T04:58:35;13.60;99.90
46898;DHT22;32646;50.958;6.258;2022-07-10T05:01:02;13.70;99.90
46898;DHT22;32646;50.958;6.258;2022-07-10T05:03:29;13.70;99.90
46898;DHT22;32646;50.958;6.258;2022-07-10T05:05:55;13.90;99.90
46898;DHT22;32646;50.958;6.258;2022-07-10T05:08:22;14.00;99.90
46898;DHT22;32646;50.958;6.258;2022-07-10T05:10:48;14.00;99.90
46898;DHT22;32646;50.958;6.258;2022-07-10T05:13:15;14.10;99.90
46898;DHT22;32646;50.958;6.258;2022-07-10T05:15:42;14.20;99.90
46898;DHT22;32646;50.958;6.258;2022-07-10T05:18:08;14.20;99.90
46898;DHT22;32646;50.958;6.258;2022-07-10T05:20:35;14.30;99.90
46898;DHT22;32646;50.958;6.258;2022-07-10T05:23:02;14.50;99.90
46898;DHT22;32646;50.958;6.258;2022-07-10T05:25:28;14.60;99.90
46898;DHT22;32646;50.958;6.258;2022-07-10T05:27:55;14.60;99.90
46898;DHT22;32646;50.958;6.258;2022-07-10T05:30:22;14.60;99.90
46898;DHT22;32646;50.958;6.258;2022-07-10T05:32:48;14.50;99.90
46898;DHT22;32646;50.958;6.258;2022-07-10T05:35:15;14.40;99.90
46898;DHT22;32646;50.958;6.258;2022-07-10T05:37:42;14.50;99.90
46898;DHT22;32646;50.958;6.258;2022-07-10T05:40:09;14.60;99.90
46898;DHT22;32646;50.958;6.258;2022-07-10T05:42:35;14.60;99.90
46898;DHT22;32646;50.958;6.258;2022-07-10T05:45:02;14.60;99.90
46898;DHT22;32646;50.958;6.258;2022-07-10T05:47:29;14.70;99.90
46898;DHT22;32646;50.958;6.258;2022-07-10T05:49:55;14.70;99.90
46898;DHT22;32646;50.958;6.258;2022-07-10T05:52:22;14.80;99.90
46898;DHT22;32646;50.958;6.258;2022-07-10T05:54:48;14.90;99.90
46898;DHT22;32646;50.958;6.258;2022-07-10T05:57:15;15.10;99.90
46898;DHT22;32646;50.958;6.258;2022-07-10T05:59:41;15.00;99.90
46898;DHT22;32646;50.958;6.258;2022-07-10T06:02:08;15.20;99.90
46898;DHT22;32646;50.958;6.258;2022-07-10T06:04:35;15.20;99.90
46898;DHT22;32646;50.958;6.258;2022-07-10T06:07:01;15.20;99.90
46898;DHT22;32646;50.958;6.258;2022-07-10T06:09:29;15.20;99.90
46898;DHT22;32646;50.958;6.258;2022-07-10T06:11:55;15.30;99.90
46898;DHT22;32646;50.958;6.258;2022-07-10T06:14:22;15.50;99.90
46898;DHT22;32646;50.958;6.258;2022-07-10T06:16:48;15.60;99.90
46898;DHT22;32646;50.958;6.258;2022-07-10T06:19:15;15.60;99.90
46898;DHT22;32646;50.958;6.258;2022-07-10T06:21:41;15.70;99.90
46898;DHT22;32646;50.958;6.258;2022-07-10T06:24:08;15.70;99.90
46898;DHT22;32646;50.958;6.258;2022-07-10T06:26:35;15.70;99.90
46898;DHT22;32646;50.958;6.258;2022-07-10T06:29:02;15.80;99.90
46898;DHT22;32646;50.958;6.258;2022-07-10T06:31:29;15.90;99.90
46898;DHT22;32646;50.958;6.258;2022-07-10T06:33:55;15.90;99.90
46898;DHT22;32646;50.958;6.258;2022-07-10T06:36:22;16.00;99.90
46898;DHT22;32646;50.958;6.258;2022-07-10T06:38:52;15.90;99.90
46898;DHT22;32646;50.958;6.258;2022-07-10T06:41:19;15.90;99.90
46898;DHT22;32646;50.958;6.258;2022-07-10T06:43:45;15.90;99.90
46898;DHT22;32646;50.958;6.258;2022-07-10T06:46:12;15.90;99.90
46898;DHT22;32646;50.958;6.258;2022-07-10T06:48:38;15.90;99.90
46898;DHT22;32646;50.958;6.258;2022-07-10T06:51:06;15.90;99.90
46898;DHT22;32646;50.958;6.258;2022-07-10T06:53:33;15.90;99.90
46898;DHT22;32646;50.958;6.258;2022-07-10T06:55:59;16.00;99.90
46898;DHT22;32646;50.958;6.258;2022-07-10T06:58:26;16.10;99.90
46898;DHT22;32646;50.958;6.258;2022-07-10T07:00:53;16.10;99.90
46898;DHT22;32646;50.958;6.258;2022-07-10T07:03:20;16.10;99.90
46898;DHT22;32646;50.958;6.258;2022-07-10T07:05:47;16.10;99.90
46898;DHT22;32646;50.958;6.258;2022-07-10T07:08:13;16.10;99.90
46898;DHT22;32646;50.958;6.258;2022-07-10T07:10:40;16.10;99.90
46898;DHT22;32646;50.958;6.258;2022-07-10T07:13:06;16.00;99.90
46898;DHT22;32646;50.958;6.258;2022-07-10T07:15:33;16.10;99.90
46898;DHT22;32646;50.958;6.258;2022-07-10T07:18:00;16.10;99.90
46898;DHT22;32646;50.958;6.258;2022-07-10T07:20:26;15.80;99.90
46898;DHT22;32646;50.958;6.258;2022-07-10T07:22:53;15.90;99.90
46898;DHT22;32646;50.958;6.258;2022-07-10T07:25:20;16.10;99.90
46898;DHT22;32646;50.958;6.258;2022-07-10T07:27:46;16.30;99.90
46898;DHT22;32646;50.958;6.258;2022-07-10T07:30:14;16.50;99.90
46898;DHT22;32646;50.958;6.258;2022-07-10T07:32:42;16.60;99.90
46898;DHT22;32646;50.958;6.258;2022-07-10T07:35:09;16.90;99.90
46898;DHT22;32646;50.958;6.258;2022-07-10T07:40:08;16.70;99.90
46898;DHT22;32646;50.958;6.258;2022-07-10T07:42:35;16.90;99.90
46898;DHT22;32646;50.958;6.258;2022-07-10T07:45:03;17.20;99.90
46898;DHT22;32646;50.958;6.258;2022-07-10T07:47:37;17.40;99.90
46898;DHT22;32646;50.958;6.258;2022-07-10T07:50:08;17.70;99.90
46898;DHT22;32646;50.958;6.258;2022-07-10T07:52:35;17.70;99.90
46898;DHT22;32646;50.958;6.258;2022-07-10T07:55:02;18.00;99.90
46898;DHT22;32646;50.958;6.258;2022-07-10T07:57:28;18.00;99.90
46898;DHT22;32646;50.958;6.258;2022-07-10T07:59:55;18.00;99.90
46898;DHT22;32646;50.958;6.258;2022-07-10T08:02:22;18.00;99.40
46898;DHT22;32646;50.958;6.258;2022-07-10T08:04:48;18.10;99.90
46898;DHT22;32646;50.958;6.258;2022-07-10T08:07:15;18.10;99.60
46898;DHT22;32646;50.958;6.258;2022-07-10T08:09:42;18.10;99.90
46898;DHT22;32646;50.958;6.258;2022-07-10T08:12:08;18.00;99.90
46898;DHT22;32646;50.958;6.258;2022-07-10T08:14:35;18.00;99.90
46898;DHT22;32646;50.958;6.258;2022-07-10T08:17:02;18.20;99.90
46898;DHT22;32646;50.958;6.258;2022-07-10T08:19:28;18.40;99.20
46898;DHT22;32646;50.958;6.258;2022-07-10T08:21:55;18.60;98.70
46898;DHT22;32646;50.958;6.258;2022-07-10T08:24:22;18.60;98.50
46898;DHT22;32646;50.958;6.258;2022-07-10T08:26:48;18.60;99.20
46898;DHT22;32646;50.958;6.258;2022-07-10T08:29:15;18.40;99.10
46898;DHT22;32646;50.958;6.258;2022-07-10T08:31:41;18.10;99.50
46898;DHT22;32646;50.958;6.258;2022-07-10T08:34:08;18.40;98.90
46898;DHT22;32646;50.958;6.258;2022-07-10T08:36:34;18.70;97.50
46898;DHT22;32646;50.958;6.258;2022-07-10T08:39:08;19.10;97.10
46898;DHT22;32646;50.958;6.258;2022-07-10T08:41:35;19.10;98.00
46898;DHT22;32646;50.958;6.258;2022-07-10T08:44:02;19.30;96.50
46898;DHT22;32646;50.958;6.258;2022-07-10T08:46:31;19.10;97.00
46898;DHT22;32646;50.958;6.258;2022-07-10T08:48:59;19.10;96.90
46898;DHT22;32646;50.958;6.258;2022-07-10T08:54:09;18.90;97.70
46898;DHT22;32646;50.958;6.258;2022-07-10T08:56:36;18.90;97.40
46898;DHT22;32646;50.958;6.258;2022-07-10T08:59:03;19.10;97.00
46898;DHT22;32646;50.958;6.258;2022-07-10T09:01:32;19.10;96.20
46898;DHT22;32646;50.958;6.258;2022-07-10T09:03:59;19.10;96.00
46898;DHT22;32646;50.958;6.258;2022-07-10T09:06:28;18.70;97.30
46898;DHT22;32646;50.958;6.258;2022-07-10T09:08:59;18.60;98.00
46898;DHT22;32646;50.958;6.258;2022-07-10T09:11:26;18.70;97.20
46898;DHT22;32646;50.958;6.258;2022-07-10T09:13:54;18.80;97.50
46898;DHT22;32646;50.958;6.258;2022-07-10T09:16:22;18.80;97.30
46898;DHT22;32646;50.958;6.258;2022-07-10T09:18:49;19.00;97.30
46898;DHT22;32646;50.958;6.258;2022-07-10T09:21:16;18.90;97.10
46898;DHT22;32646;50.958;6.258;2022-07-10T09:23:43;19.10;96.30
46898;DHT22;32646;50.958;6.258;2022-07-10T09:26:09;19.10;96.70
46898;DHT22;32646;50.958;6.258;2022-07-10T09:28:36;18.80;97.10
46898;DHT22;32646;50.958;6.258;2022-07-10T09:31:03;18.80;96.30
46898;DHT22;32646;50.958;6.258;2022-07-10T09:33:31;18.70;96.90
46898;DHT22;32646;50.958;6.258;2022-07-10T09:36:02;18.50;97.40
46898;DHT22;32646;50.958;6.258;2022-07-10T09:38:48;18.30;98.40
46898;DHT22;32646;50.958;6.258;2022-07-10T09:43:47;18.20;99.10
46898;DHT22;32646;50.958;6.258;2022-07-10T09:46:18;18.10;99.10
46898;DHT22;32646;50.958;6.258;2022-07-10T09:49:00;18.20;98.90
46898;DHT22;32646;50.958;6.258;2022-07-10T09:51:30;18.10;99.20
46898;DHT22;32646;50.958;6.258;2022-07-10T09:54:00;18.30;98.90
46898;DHT22;32646;50.958;6.258;2022-07-10T09:56:30;18.30;98.30
46898;DHT22;32646;50.958;6.258;2022-07-10T09:59:00;18.40;98.60
46898;DHT22;32646;50.958;6.258;2022-07-10T10:01:27;18.40;99.10
46898;DHT22;32646;50.958;6.258;2022-07-10T10:03:55;18.50;98.70
46898;DHT22;32646;50.958;6.258;2022-07-10T10:06:26;18.50;98.20
46898;DHT22;32646;50.958;6.258;2022-07-10T10:09:03;18.50;98.50
46898;DHT22;32646;50.958;6.258;2022-07-10T10:11:32;18.40;98.70
46898;DHT22;32646;50.958;6.258;2022-07-10T10:14:01;18.10;98.70
46898;DHT22;32646;50.958;6.258;2022-07-10T10:16:29;18.10;99.90
46898;DHT22;32646;50.958;6.258;2022-07-10T10:19:03;18.00;99.90
46898;DHT22;32646;50.958;6.258;2022-07-10T10:21:29;18.10;99.90
46898;DHT22;32646;50.958;6.258;2022-07-10T10:23:56;18.20;99.90
46898;DHT22;32646;50.958;6.258;2022-07-10T10:26:23;18.30;99.90
46898;DHT22;32646;50.958;6.258;2022-07-10T10:28:52;18.70;99.70
46898;DHT22;32646;50.958;6.258;2022-07-10T10:31:20;19.00;99.00
46898;DHT22;32646;50.958;6.258;2022-07-10T10:33:47;19.30;97.80
46898;DHT22;32646;50.958;6.258;2022-07-10T10:39:08;19.60;97.40
46898;DHT22;32646;50.958;6.258;2022-07-10T10:41:52;19.40;98.40
46898;DHT22;32646;50.958;6.258;2022-07-10T10:44:23;19.20;97.50
46898;DHT22;32646;50.958;6.258;2022-07-10T10:49:18;19.10;98.70
46898;DHT22;32646;50.958;6.258;2022-07-10T10:51:57;19.20;98.20
46898;DHT22;32646;50.958;6.258;2022-07-10T10:54:24;19.10;98.20
46898;DHT22;32646;50.958;6.258;2022-07-10T11:02:32;19.20;98.50
46898;DHT22;32646;50.958;6.258;2022-07-10T11:08:00;19.20;99.60
46898;DHT22;32646;50.958;6.258;2022-07-10T11:10:35;19.30;99.90
46898;DHT22;32646;50.958;6.258;2022-07-10T11:13:04;19.80;99.50
46898;DHT22;32646;50.958;6.258;2022-07-10T11:15:32;20.40;97.60
46898;DHT22;32646;50.958;6.258;2022-07-10T11:18:16;20.60;98.00
46898;DHT22;32646;50.958;6.258;2022-07-10T11:20:45;21.00;96.00
46898;DHT22;32646;50.958;6.258;2022-07-10T11:26:13;20.50;96.80
46898;DHT22;32646;50.958;6.258;2022-07-10T11:31:10;20.70;96.60
46898;DHT22;32646;50.958;6.258;2022-07-10T11:33:41;21.10;94.90
46898;DHT22;32646;50.958;6.258;2022-07-10T11:36:13;20.80;95.60
46898;DHT22;32646;50.958;6.258;2022-07-10T11:38:41;20.50;95.80
46898;DHT22;32646;50.958;6.258;2022-07-10T11:41:13;20.50;96.20
46898;DHT22;32646;50.958;6.258;2022-07-10T11:43:53;20.70;95.70
46898;DHT22;32646;50.958;6.258;2022-07-10T11:46:21;21.20;95.30
46898;DHT22;32646;50.958;6.258;2022-07-10T11:48:49;21.50;95.00
46898;DHT22;32646;50.958;6.258;2022-07-10T11:53:54;22.40;94.90
46898;DHT22;32646;50.958;6.258;2022-07-10T11:56:21;23.00;92.60
46898;DHT22;32646;50.958;6.258;2022-07-10T12:01:33;23.20;92.60
46898;DHT22;32646;50.958;6.258;2022-07-10T12:04:02;23.10;92.30
46898;DHT22;32646;50.958;6.258;2022-07-10T12:06:31;23.10;91.90
46898;DHT22;32646;50.958;6.258;2022-07-10T12:09:08;22.60;92.40
46898;DHT22;32646;50.958;6.258;2022-07-10T12:11:36;22.60;92.50
46898;DHT22;32646;50.958;6.258;2022-07-10T12:14:15;21.90;93.00
46898;DHT22;32646;50.958;6.258;2022-07-10T12:16:43;21.70;93.40
46898;DHT22;32646;50.958;6.258;2022-07-10T12:19:12;21.40;93.10
46898;DHT22;32646;50.958;6.258;2022-07-10T12:21:41;21.20;94.10
46898;DHT22;32646;50.958;6.258;2022-07-10T12:24:08;21.30;94.40
46898;DHT22;32646;50.958;6.258;2022-07-10T12:26:39;21.20;94.00
46898;DHT22;32646;50.958;6.258;2022-07-10T12:29:06;21.50;93.90
46898;DHT22;32646;50.958;6.258;2022-07-10T12:31:34;21.70;93.90
46898;DHT22;32646;50.958;6.258;2022-07-10T12:34:06;21.70;94.80
46898;DHT22;32646;50.958;6.258;2022-07-10T12:36:51;22.20;94.40
46898;DHT22;32646;50.958;6.258;2022-07-10T12:39:19;22.30;94.50
46898;DHT22;32646;50.958;6.258;2022-07-10T12:41:59;22.40;92.80
46898;DHT22;32646;50.958;6.258;2022-07-10T12:44:52;22.10;93.10
46898;DHT22;32646;50.958;6.258;2022-07-10T12:47:20;21.90;92.90
46898;DHT22;32646;50.958;6.258;2022-07-10T12:49:57;21.60;93.80
46898;DHT22;32646;50.958;6.258;2022-07-10T12:55:14;21.20;94.00
46898;DHT22;32646;50.958;6.258;2022-07-10T12:57:54;20.90;94.90
46898;DHT22;32646;50.958;6.258;2022-07-10T13:00:26;20.70;94.70
46898;DHT22;32646;50.958;6.258;2022-07-10T13:03:06;20.90;96.20
46898;DHT22;32646;50.958;6.258;2022-07-10T13:05:35;21.10;95.30
46898;DHT22;32646;50.958;6.258;2022-07-10T13:08:14;21.30;95.30
46898;DHT22;32646;50.958;6.258;2022-07-10T13:10:45;21.90;94.00
46898;DHT22;32646;50.958;6.258;2022-07-10T13:13:13;22.60;93.50
46898;DHT22;32646;50.958;6.258;2022-07-10T13:15:40;22.70;92.00
46898;DHT22;32646;50.958;6.258;2022-07-10T13:18:07;23.40;93.40
46898;DHT22;32646;50.958;6.258;2022-07-10T13:20:35;24.00;91.90
46898;DHT22;32646;50.958;6.258;2022-07-10T13:23:02;24.20;90.90
46898;DHT22;32646;50.958;6.258;2022-07-10T13:25:29;24.10;90.10
46898;DHT22;32646;50.958;6.258;2022-07-10T13:27:57;23.90;90.00
46898;DHT22;32646;50.958;6.258;2022-07-10T13:30:23;23.50;90.40
46898;DHT22;32646;50.958;6.258;2022-07-10T13:32:50;23.10;91.00
46898;DHT22;32646;50.958;6.258;2022-07-10T13:35:16;22.50;91.80
46898;DHT22;32646;50.958;6.258;2022-07-10T13:37:43;22.00;92.60
46898;DHT22;32646;50.958;6.258;2022-07-10T13:40:10;21.80;92.60
46898;DHT22;32646;50.958;6.258;2022-07-10T13:42:36;21.60;92.80
46898;DHT22;32646;50.958;6.258;2022-07-10T13:45:03;21.40;93.90
46898;DHT22;32646;50.958;6.258;2022-07-10T13:47:30;21.30;94.00
46898;DHT22;32646;50.958;6.258;2022-07-10T13:49:57;21.30;95.00
46898;DHT22;32646;50.958;6.258;2022-07-10T13:52:23;21.70;93.40
46898;DHT22;32646;50.958;6.258;2022-07-10T13:54:50;22.00;93.20
46898;DHT22;32646;50.958;6.258;2022-07-10T13:57:17;22.20;92.90
46898;DHT22;32646;50.958;6.258;2022-07-10T13:59:43;22.30;92.90
46898;DHT22;32646;50.958;6.258;2022-07-10T14:02:11;22.20;93.10
46898;DHT22;32646;50.958;6.258;2022-07-10T14:04:42;21.90;93.50
46898;DHT22;32646;50.958;6.258;2022-07-10T14:07:08;21.50;94.20
46898;DHT22;32646;50.958;6.258;2022-07-10T14:09:35;21.40;93.90
46898;DHT22;32646;50.958;6.258;2022-07-10T14:12:02;21.10;94.80
46898;DHT22;32646;50.958;6.258;2022-07-10T14:14:28;21.10;94.70
46898;DHT22;32646;50.958;6.258;2022-07-10T14:16:55;21.20;94.80
46898;DHT22;32646;50.958;6.258;2022-07-10T14:19:22;21.20;94.90
46898;DHT22;32646;50.958;6.258;2022-07-10T14:21:48;21.40;95.40
46898;DHT22;32646;50.958;6.258;2022-07-10T14:24:15;21.50;95.20
46898;DHT22;32646;50.958;6.258;2022-07-10T14:26:42;21.80;94.50
46898;DHT22;32646;50.958;6.258;2022-07-10T14:29:08;22.10;93.30
46898;DHT22;32646;50.958;6.258;2022-07-10T14:31:35;22.30;93.60
46898;DHT22;32646;50.958;6.258;2022-07-10T14:34:01;22.80;93.80
46898;DHT22;32646;50.958;6.258;2022-07-10T14:36:28;23.30;92.50
46898;DHT22;32646;50.958;6.258;2022-07-10T14:38:56;23.70;91.70
46898;DHT22;32646;50.958;6.258;2022-07-10T14:41:23;23.80;92.20
46898;DHT22;32646;50.958;6.258;2022-07-10T14:43:50;23.90;92.30
46898;DHT22;32646;50.958;6.258;2022-07-10T14:46:17;23.80;91.30
46898;DHT22;32646;50.958;6.258;2022-07-10T14:48:44;24.20;90.50
46898;DHT22;32646;50.958;6.258;2022-07-10T14:51:11;23.90;91.20
46898;DHT22;32646;50.958;6.258;2022-07-10T14:53:37;23.80;91.20
46898;DHT22;32646;50.958;6.258;2022-07-10T14:56:05;23.90;91.70
46898;DHT22;32646;50.958;6.258;2022-07-10T14:58:32;24.10;91.00
46898;DHT22;32646;50.958;6.258;2022-07-10T15:01:19;24.20;91.40
46898;DHT22;32646;50.958;6.258;2022-07-10T15:03:46;23.90;91.00
46898;DHT22;32646;50.958;6.258;2022-07-10T15:06:13;23.70;91.20
46898;DHT22;32646;50.958;6.258;2022-07-10T15:08:41;23.60;91.50
46898;DHT22;32646;50.958;6.258;2022-07-10T15:11:07;23.50;91.70
46898;DHT22;32646;50.958;6.258;2022-07-10T15:13:34;23.70;92.20
46898;DHT22;32646;50.958;6.258;2022-07-10T15:16:01;23.90;91.40
46898;DHT22;32646;50.958;6.258;2022-07-10T15:18:28;24.40;90.70
46898;DHT22;32646;50.958;6.258;2022-07-10T15:20:55;24.60;90.50
46898;DHT22;32646;50.958;6.258;2022-07-10T15:23:23;24.00;91.20
46898;DHT22;32646;50.958;6.258;2022-07-10T15:25:51;24.00;91.60
46898;DHT22;32646;50.958;6.258;2022-07-10T15:28:24;23.80;91.40
46898;DHT22;32646;50.958;6.258;2022-07-10T15:30:51;23.80;90.60
46898;DHT22;32646;50.958;6.258;2022-07-10T15:33:19;23.40;91.20
46898;DHT22;32646;50.958;6.258;2022-07-10T15:35:46;23.10;91.30
46898;DHT22;32646;50.958;6.258;2022-07-10T15:38:12;23.00;92.10
46898;DHT22;32646;50.958;6.258;2022-07-10T15:40:39;22.80;92.00
46898;DHT22;32646;50.958;6.258;2022-07-10T15:43:06;22.60;92.40
46898;DHT22;32646;50.958;6.258;2022-07-10T15:45:33;22.30;92.50
46898;DHT22;32646;50.958;6.258;2022-07-10T15:47:59;22.30;93.20
46898;DHT22;32646;50.958;6.258;2022-07-10T15:50:26;22.10;93.40
46898;DHT22;32646;50.958;6.258;2022-07-10T15:53:00;21.70;93.50
46898;DHT22;32646;50.958;6.258;2022-07-10T15:55:26;21.60;93.30
46898;DHT22;32646;50.958;6.258;2022-07-10T15:57:53;21.50;93.70
46898;DHT22;32646;50.958;6.258;2022-07-10T16:00:20;21.40;93.90
46898;DHT22;32646;50.958;6.258;2022-07-10T16:02:46;21.30;94.60
46898;DHT22;32646;50.958;6.258;2022-07-10T16:05:13;21.20;94.20
46898;DHT22;32646;50.958;6.258;2022-07-10T16:07:40;21.20;94.40
46898;DHT22;32646;50.958;6.258;2022-07-10T16:10:06;21.20;94.80